Time;durP1;ratioP1;P1;durP2;ratioP2;P2;SDS_P1;SDS_P2;PMS_P1;PMS_P2;Temp;Humidity;BMP_temperature;BMP_pressure;BME280_temperature;BME280_humidity;BME280_pressure;Samples;Min_cycle;Max_cycle;Signal;HPM_P1;HPM_P2
2021/10/09 00:04:48;;;;;;;3.58;2.55;;;23.50;41.20;27.90;94426.00;;;;10269934;28;74466;-63
2021/10/09 00:09:53;;;;;;;4.30;3.13;;;23.60;41.20;27.90;94418.00;;;;10270181;28;47094;-64
2021/10/09 00:14:55;;;;;;;4.40;2.83;;;23.60;41.20;27.90;94421.00;;;;10269480;28;47624;-63
2021/10/09 00:19:56;;;;;;;4.85;2.80;;;23.50;41.20;27.80;94422.00;;;;10270059;28;46483;-63
2021/10/09 00:24:56;;;;;;;4.28;2.90;;;23.50;41.10;27.90;94421.00;;;;10270170;28;66575;-63
2021/10/09 00:29:57;;;;;;;4.22;2.90;;;23.50;41.10;27.80;94425.00;;;;10269348;28;74285;-63
2021/10/09 00:34:58;;;;;;;3.67;2.60;;;23.50;41.10;27.80;94424.00;;;;10269047;28;74184;-62
2021/10/09 00:39:59;;;;;;;3.55;2.60;;;23.50;41.10;27.80;94432.00;;;;10253891;28;53809;-63
2021/10/09 00:45:00;;;;;;;3.50;2.70;;;23.50;41.10;27.80;94435.00;;;;10270452;28;47340;-63
2021/10/09 00:50:01;;;;;;;3.85;2.60;;;23.50;41.10;27.80;94422.00;;;;10270492;28;47199;-63
2021/10/09 00:55:05;;;;;;;3.40;2.67;;;23.50;41.10;27.80;94427.00;;;;10269647;28;74412;-64
2021/10/09 01:00:07;;;;;;;3.42;2.42;;;23.40;41.10;27.80;94432.00;;;;10264772;28;45446;-64
2021/10/09 01:05:10;;;;;;;4.00;2.90;;;23.50;41.00;27.80;94414.00;;;;10280602;28;51751;-63
2021/10/09 01:10:11;;;;;;;4.15;2.72;;;23.50;40.90;27.80;94418.00;;;;10252171;28;47399;-63
2021/10/09 01:15:25;;;;;;;3.65;2.47;;;23.50;41.00;27.80;94426.00;;;;10250835;28;75302;-63
2021/10/09 01:20:25;;;;;;;3.08;2.28;;;23.50;41.00;27.70;94426.00;;;;10269708;28;52025;-64
2021/10/09 01:25:26;;;;;;;3.35;2.60;;;23.50;41.00;27.70;94428.00;;;;10266576;28;74880;-64
2021/10/09 01:30:27;;;;;;;3.55;2.70;;;23.50;40.90;27.70;94429.00;;;;10266648;28;74176;-62
2021/10/09 01:35:27;;;;;;;4.10;2.85;;;23.40;40.90;27.70;94424.00;;;;10266789;28;74524;-64
2021/10/09 01:40:28;;;;;;;3.60;2.53;;;23.40;40.90;27.70;94432.00;;;;10250823;28;72512;-63
2021/10/09 01:45:29;;;;;;;4.03;2.85;;;23.40;40.90;27.70;94439.00;;;;10267722;28;53608;-62
2021/10/09 01:50:30;;;;;;;4.43;3.00;;;23.40;40.90;27.70;94437.00;;;;10266295;28;72958;-63
2021/10/09 01:55:31;;;;;;;3.95;2.78;;;23.40;40.90;27.70;94435.00;;;;10267010;28;75337;-64
2021/10/09 02:00:33;;;;;;;3.72;2.58;;;23.40;40.90;27.60;94414.00;;;;10268178;28;52381;-63
2021/10/09 02:05:35;;;;;;;3.78;2.80;;;23.40;40.90;27.60;94427.00;;;;10251442;28;47293;-63
2021/10/09 02:10:45;;;;;;;3.22;2.47;;;23.40;40.80;27.60;94432.00;;;;10268028;28;45411;-63
2021/10/09 02:15:56;;;;;;;3.58;2.60;;;23.40;40.80;27.60;94432.00;;;;10267076;28;45635;-62
2021/10/09 02:26:16;;;;;;;3.30;2.67;;;23.30;40.80;27.60;94428.00;;;;10266215;28;45724;-63
2021/10/09 02:31:17;;;;;;;3.22;2.58;;;23.40;40.80;27.60;94422.00;;;;10265914;28;58628;-63
2021/10/09 02:36:18;;;;;;;3.47;2.70;;;23.30;40.80;27.60;94425.00;;;;10250026;28;47113;-63
2021/10/09 02:41:18;;;;;;;4.20;2.58;;;23.30;40.80;27.60;94427.00;;;;10272454;28;46389;-63
2021/10/09 02:46:19;;;;;;;4.65;2.67;;;23.30;40.80;27.60;94432.00;;;;10271896;28;75633;-64
2021/10/09 02:51:20;;;;;;;3.75;2.70;;;23.30;40.90;27.60;94415.00;;;;10255486;28;75747;-62
2021/10/09 02:56:20;;;;;;;3.92;2.75;;;23.30;40.80;27.50;94427.00;;;;10271779;28;73522;-62
2021/10/09 03:01:21;;;;;;;3.58;2.60;;;23.30;40.70;27.60;94435.00;;;;10271914;28;75111;-63
2021/10/09 03:06:22;;;;;;;5.20;2.72;;;23.30;40.70;27.50;94434.00;;;;10271533;28;74202;-64
2021/10/09 03:11:22;;;;;;;3.45;2.80;;;23.30;40.70;27.50;94427.00;;;;10273459;28;75680;-63
2021/10/09 03:16:24;;;;;;;3.05;2.38;;;23.30;40.80;27.50;94432.00;;;;10271603;28;74687;-64
2021/10/09 03:21:25;;;;;;;3.38;2.58;;;23.30;40.70;27.50;94416.00;;;;10327756;22;45853;-64
2021/10/09 03:26:25;;;;;;;3.17;2.42;;;23.30;40.70;27.50;94419.00;;;;10409905;28;62433;-65
2021/10/09 03:31:26;;;;;;;3.70;2.53;;;23.30;40.80;27.50;94429.00;;;;10393818;28;47101;-65
2021/10/09 03:36:27;;;;;;;3.55;2.60;;;23.30;40.70;27.50;94416.00;;;;10375860;28;74389;-65
2021/10/09 03:41:27;;;;;;;3.55;2.60;;;23.20;40.70;27.50;94438.00;;;;10376145;28;74197;-65
2021/10/09 03:46:30;;;;;;;3.75;2.70;;;23.20;40.70;27.50;94433.00;;;;10392585;28;58586;-65
2021/10/09 03:56:50;;;;;;;3.72;2.33;;;23.20;40.70;27.50;94425.00;;;;10391793;28;45623;-65
2021/10/09 04:01:51;;;;;;;3.58;2.67;;;23.20;40.80;27.50;94434.00;;;;10375028;28;75430;-63
2021/10/09 04:06:51;;;;;;;3.65;2.55;;;23.20;40.80;27.50;94438.00;;;;10391646;28;73113;-66
2021/10/09 04:11:52;;;;;;;3.58;2.55;;;23.20;40.80;27.50;94445.00;;;;10391450;28;75590;-64
2021/10/09 04:16:53;;;;;;;3.80;2.47;;;23.20;41.10;27.50;94442.00;;;;10391262;28;75585;-63
2021/10/09 04:21:53;;;;;;;3.40;2.33;;;23.30;41.20;27.60;94434.00;;;;10391163;28;75123;-63
2021/10/09 04:26:54;;;;;;;3.92;2.45;;;23.30;40.90;27.60;94428.00;;;;10392087;28;46591;-64
2021/10/09 04:31:55;;;;;;;4.32;2.55;;;23.40;40.90;27.70;94443.00;;;;10375722;28;47189;-63
2021/10/09 04:36:56;;;;;;;3.00;2.13;;;23.40;40.90;27.70;94450.00;;;;10391850;28;45322;-67
2021/10/09 04:41:56;;;;;;;3.67;2.30;;;23.40;40.70;27.70;94445.00;;;;10390591;28;75393;-65
2021/10/09 04:46:57;;;;;;;2.90;2.20;;;23.40;40.70;27.80;94442.00;;;;10374027;28;73177;-64
2021/10/09 04:51:58;;;;;;;3.30;2.40;;;23.50;40.60;27.80;94453.00;;;;10390260;28;73389;-63
2021/10/09 04:56:58;;;;;;;2.35;2.00;;;23.50;40.60;27.80;94452.00;;;;10374136;28;47166;-65
2021/10/09 05:01:59;;;;;;;2.92;2.33;;;23.50;40.50;27.90;94458.00;;;;10390118;28;74043;-63
2021/10/09 05:07:00;;;;;;;4.30;2.50;;;23.50;40.40;27.90;94456.00;;;;10390914;28;45585;-63
2021/10/09 05:12:00;;;;;;;4.55;2.58;;;23.60;40.50;27.90;94463.00;;;;10389694;28;75534;-67
2021/10/09 05:17:01;;;;;;;3.08;2.13;;;23.50;40.20;27.90;94467.00;;;;10389762;28;75362;-66
2021/10/09 05:22:02;;;;;;;3.20;2.13;;;23.60;40.30;27.90;94464.00;;;;10389808;28;47616;-65
2021/10/09 05:27:03;;;;;;;4.78;2.35;;;23.60;40.20;27.90;94480.00;;;;10391074;28;46525;-67
2021/10/09 05:32:06;;;;;;;4.75;2.60;;;23.60;40.10;28.00;94480.00;;;;10390273;28;46551;-64
2021/10/09 05:37:07;;;;;;;3.75;2.47;;;23.70;40.20;28.00;94488.00;;;;10374004;28;47987;-65
2021/10/09 05:42:08;;;;;;;3.80;2.47;;;23.70;40.20;28.00;94479.00;;;;10389073;28;75410;-65
2021/10/09 05:47:08;;;;;;;3.63;2.13;;;23.70;40.10;28.00;94487.00;;;;10389315;28;49459;-64
2021/10/09 05:52:17;;;;;;;3.90;2.13;;;23.70;40.00;28.00;94485.00;;;;10371975;28;75485;-63
2021/10/09 07:01:15;;;;;;;4.57;2.58;;;23.70;38.60;28.00;94536.00;;;;10352890;28;45302;-64
2021/10/09 07:06:17;;;;;;;4.03;2.72;;;23.70;39.70;28.00;94558.00;;;;10369019;28;77380;-65
2021/10/09 07:11:18;;;;;;;4.07;2.60;;;23.70;39.70;28.10;94543.00;;;;10353874;28;47389;-66
2021/10/09 07:16:19;;;;;;;4.15;2.47;;;23.80;39.60;28.10;94545.00;;;;10353849;28;47922;-63
2021/10/09 07:21:19;;;;;;;3.47;2.38;;;23.80;39.50;28.10;94557.00;;;;10354625;28;46118;-64
2021/10/09 07:26:20;;;;;;;4.32;2.67;;;23.80;39.50;28.10;94566.00;;;;10352374;28;74430;-64
2021/10/09 07:31:21;;;;;;;3.53;2.58;;;23.80;39.60;28.10;94563.00;;;;10352991;28;75323;-64
2021/10/09 07:36:21;;;;;;;3.15;2.35;;;23.80;39.50;28.10;94558.00;;;;10336367;28;75514;-67
2021/10/09 07:41:22;;;;;;;3.65;2.40;;;23.80;39.40;28.10;94562.00;;;;10368843;28;73650;-67
2021/10/09 07:46:23;;;;;;;5.25;2.80;;;23.80;39.40;28.20;94581.00;;;;10352759;28;75343;-65
2021/10/09 07:51:24;;;;;;;3.72;2.33;;;23.80;39.40;28.20;94578.00;;;;10352966;28;47061;-64
2021/10/09 07:56:24;;;;;;;3.38;2.28;;;23.80;39.40;28.20;94569.00;;;;10388290;28;76350;-66
2021/10/09 08:01:25;;;;;;;2.88;2.25;;;23.90;39.90;28.20;94575.00;;;;10388683;28;74515;-64
2021/10/09 08:06:26;;;;;;;3.35;2.22;;;23.90;40.20;28.30;94576.00;;;;10394983;28;46299;-64
2021/10/09 08:11:27;;;;;;;3.97;2.10;;;23.90;40.10;28.40;94580.00;;;;10376334;28;47133;-65
2021/10/09 08:16:27;;;;;;;4.82;2.40;;;24.00;40.20;28.40;94579.00;;;;10393346;28;74629;-63
2021/10/09 08:21:30;;;;;;;4.53;2.50;;;24.00;40.20;28.50;94574.00;;;;10409815;28;48422;-66
2021/10/09 08:26:45;;;;;;;4.50;2.60;;;24.10;40.20;28.40;94572.00;;;;10376721;28;47136;-68
2021/10/09 08:42:15;;;;;;;5.97;2.70;;;24.10;39.80;28.40;94563.00;;;;10391801;28;45847;-66
2021/10/09 08:47:16;;;;;;;4.43;2.63;;;24.00;37.80;28.40;94582.00;;;;10392828;28;45313;-62
2021/10/09 08:52:23;;;;;;;4.72;2.47;;;24.00;38.10;28.40;94584.00;;;;10392310;28;74044;-62
2021/10/09 08:57:26;;;;;;;10.05;5.00;;;23.90;38.50;28.40;94585.00;;;;10392699;28;45594;-65
2021/10/09 09:02:40;;;;;;;6.57;3.70;;;23.90;37.10;28.40;94570.00;;;;10389424;28;45345;-66
2021/10/09 09:39:46;;;;;;;5.32;2.88;;;24.10;38.80;28.40;94560.00;;;;10385840;28;45332;-63
2021/10/09 09:44:59;;;;;;;6.22;3.08;;;24.10;38.90;28.50;94560.00;;;;10406823;28;75226;-63
2021/10/09 09:50:03;;;;;;;5.53;3.15;;;24.00;38.70;28.40;94556.00;;;;10396881;28;45365;-64
2021/10/09 09:55:06;;;;;;;5.00;2.75;;;24.10;38.70;28.40;94559.00;;;;10397592;28;45415;-65
2021/10/09 10:00:13;;;;;;;4.72;2.83;;;24.10;38.70;28.40;94554.00;;;;10390975;28;54555;-67
2021/10/09 10:05:14;;;;;;;6.40;2.75;;;24.10;38.80;28.50;94542.00;;;;10356664;28;47014;-66
2021/10/09 10:10:16;;;;;;;6.28;2.60;;;24.10;38.80;28.50;94547.00;;;;10356819;28;45523;-66
2021/10/09 10:15:17;;;;;;;4.57;2.70;;;24.10;38.90;28.50;94557.00;;;;10386311;28;45554;-66
2021/10/09 10:20:20;;;;;;;5.35;2.90;;;24.20;39.40;28.60;94562.00;;;;10396192;28;55969;-67
2021/10/09 10:25:26;;;;;;;6.15;2.60;;;24.20;39.20;28.60;94547.00;;;;10396859;28;45741;-67
2021/10/09 10:30:33;;;;;;;5.72;2.67;;;24.20;39.20;28.70;94551.00;;;;10396854;28;46915;-65
2021/10/09 10:35:35;;;;;;;4.15;2.60;;;24.20;39.30;28.60;94558.00;;;;10397161;28;45446;-68
2021/10/09 10:40:57;;;;;;;4.80;2.50;;;24.20;39.40;28.70;94557.00;;;;10394597;28;46975;-67
2021/10/09 10:51:53;;;;;;;3.42;1.98;;;24.30;39.60;28.70;94546.00;;;;10391952;28;45515;-67
2021/10/09 10:56:59;;;;;;;3.97;2.58;;;24.30;39.70;28.70;94548.00;;;;10395179;28;48230;-67
2021/10/09 11:02:39;;;;;;;4.40;2.53;;;24.30;39.80;28.80;94553.00;;;;10394704;28;47741;-67
2021/10/09 11:07:42;;;;;;;3.33;2.20;;;24.30;39.90;28.70;94541.00;;;;10395383;28;45429;-67
2021/10/09 11:12:45;;;;;;;3.47;2.10;;;24.30;40.00;28.70;94547.00;;;;10395432;28;45573;-67
2021/10/09 11:18:04;;;;;;;4.00;1.90;;;24.30;40.00;28.80;94560.00;;;;10396680;28;46398;-67
2021/10/09 11:23:11;;;;;;;3.28;2.10;;;24.30;40.00;28.80;94544.00;;;;10368813;28;47210;-65
2021/10/09 11:28:25;;;;;;;3.80;2.10;;;24.30;40.10;28.80;94547.00;;;;10395206;28;45443;-67
2021/10/09 11:33:27;;;;;;;3.92;2.40;;;24.40;40.20;28.80;94559.00;;;;10378735;28;46972;-68
2021/10/09 11:38:33;;;;;;;4.78;2.20;;;24.40;40.20;28.80;94547.00;;;;10380399;28;47080;-66
2021/10/09 11:54:18;;;;;;;3.20;2.00;;;24.40;40.30;28.80;94546.00;;;;10392077;28;45964;-67
2021/10/09 11:59:38;;;;;;;3.08;1.92;;;24.40;40.30;29.00;94534.00;;;;10394668;28;46158;-67
2021/10/09 12:04:40;;;;;;;4.20;2.17;;;24.40;40.30;28.90;94533.00;;;;10410301;28;46579;-67
2021/10/09 12:09:50;;;;;;;3.22;1.92;;;24.40;40.30;28.90;94532.00;;;;10376869;28;47405;-67
2021/10/09 12:14:53;;;;;;;3.92;2.03;;;24.40;40.40;28.90;94538.00;;;;10394335;28;45757;-67
2021/10/09 12:19:58;;;;;;;2.65;1.90;;;24.50;40.40;28.90;94539.00;;;;10372882;28;47197;-67
2021/10/09 12:24:59;;;;;;;3.63;1.97;;;24.40;40.40;29.00;94540.00;;;;10375484;28;48052;-67
2021/10/09 12:30:09;;;;;;;3.33;2.20;;;24.50;40.50;29.00;94533.00;;;;10374700;28;46711;-71
2021/10/09 12:35:22;;;;;;;4.30;1.83;;;24.50;40.30;29.00;94544.00;;;;10326353;28;48085;-72
2021/10/09 12:40:39;;;;;;;2.92;1.48;;;24.60;40.20;29.20;94534.00;;;;10311955;28;95162;-72
2021/10/09 12:45:41;;;;;;;2.95;1.55;;;24.70;39.60;29.10;94538.00;;;;10393027;28;54780;-69
2021/10/09 12:50:44;;;;;;;3.08;1.50;;;24.70;39.30;29.10;94548.00;;;;10393089;28;47198;-70
2021/10/09 12:55:45;;;;;;;2.17;1.42;;;24.60;39.30;29.00;94546.00;;;;10392633;28;46194;-69
2021/10/09 13:00:47;;;;;;;2.05;1.30;;;24.60;39.20;29.00;94551.00;;;;10391370;28;73637;-70
2021/10/09 13:05:48;;;;;;;3.50;1.45;;;24.60;39.20;29.00;94535.00;;;;10376857;28;75552;-71
2021/10/09 13:10:50;;;;;;;2.30;1.40;;;24.60;39.00;29.00;94543.00;;;;10364443;28;67638;-71
2021/10/09 13:15:51;;;;;;;2.28;1.30;;;24.60;39.00;28.90;94545.00;;;;10355233;28;46926;-71
2021/10/09 13:20:51;;;;;;;2.35;1.50;;;24.60;38.90;28.90;94534.00;;;;10375116;28;75312;-70
2021/10/09 13:25:52;;;;;;;2.78;1.40;;;24.50;39.00;28.90;94530.00;;;;10389393;28;75745;-68
2021/10/09 13:30:54;;;;;;;2.10;1.60;;;24.50;39.10;28.90;94537.00;;;;10390240;28;73962;-68
2021/10/09 13:35:55;;;;;;;1.98;1.40;;;24.50;38.90;28.90;94542.00;;;;10393025;28;47884;-68
2021/10/09 13:40:55;;;;;;;2.08;1.42;;;24.50;38.90;28.90;94529.00;;;;10372792;28;47093;-65
2021/10/09 13:45:56;;;;;;;2.55;1.50;;;24.50;39.10;28.90;94542.00;;;;10389293;28;45433;-64
2021/10/09 13:50:57;;;;;;;2.65;1.63;;;24.50;39.50;28.90;94552.00;;;;10377895;28;47162;-64
2021/10/09 13:55:58;;;;;;;1.95;1.45;;;24.50;39.50;28.90;94536.00;;;;10386534;28;47040;-64
2021/10/09 14:00:59;;;;;;;3.55;1.50;;;24.50;39.60;28.90;94540.00;;;;10387877;28;52776;-64
2021/10/09 14:06:02;;;;;;;1.45;1.20;;;24.50;39.80;29.00;94542.00;;;;10376918;28;48020;-68
2021/10/09 14:11:04;;;;;;;2.58;1.50;;;24.60;39.60;29.00;94561.00;;;;10346550;28;48422;-70
2021/10/09 14:16:05;;;;;;;2.40;1.38;;;24.60;39.30;29.00;94541.00;;;;10370900;28;47086;-67
2021/10/09 14:21:05;;;;;;;2.50;1.27;;;24.50;38.90;28.90;94547.00;;;;10389637;28;45617;-67
2021/10/09 14:26:06;;;;;;;2.65;1.63;;;24.60;39.20;28.90;94542.00;;;;10372339;28;74405;-66
2021/10/09 14:31:07;;;;;;;2.58;1.63;;;24.50;39.20;28.90;94547.00;;;;10371838;28;54845;-65
2021/10/09 14:36:08;;;;;;;3.78;1.23;;;24.50;39.30;28.80;94539.00;;;;10394244;28;70476;-65
2021/10/09 14:41:08;;;;;;;2.55;1.55;;;24.40;39.30;28.80;94547.00;;;;10369931;28;74203;-66
2021/10/09 15:23:01;;;;;;;4.78;1.70;;;24.30;39.00;28.70;94555.00;;;;10397171;22;45491;-63
2021/10/09 15:28:02;;;;;;;2.88;1.60;;;24.30;39.00;28.70;94552.00;;;;10353808;28;45374;-64
2021/10/09 15:33:04;;;;;;;2.30;1.67;;;24.30;38.90;28.70;94564.00;;;;10353098;28;47245;-65
2021/10/09 15:38:05;;;;;;;2.45;1.65;;;24.30;38.80;28.70;94564.00;;;;10353636;28;45376;-62
2021/10/09 15:43:06;;;;;;;2.67;1.77;;;24.30;38.80;28.70;94568.00;;;;10353864;28;45366;-63
2021/10/09 15:48:07;;;;;;;2.30;1.60;;;24.30;38.80;28.70;94569.00;;;;10351541;28;75404;-62
2021/10/09 15:53:13;;;;;;;2.55;1.90;;;24.30;38.80;28.70;94568.00;;;;10353049;28;74363;-64
2021/10/09 15:58:13;;;;;;;2.47;1.67;;;24.30;38.80;28.60;94578.00;;;;10354074;28;46292;-64
2021/10/09 16:03:14;;;;;;;2.72;2.00;;;24.30;38.80;28.60;94573.00;;;;10351626;28;70228;-63
2021/10/09 16:08:15;;;;;;;1.83;1.58;;;24.30;38.70;28.60;94572.00;;;;10352996;28;46056;-63
2021/10/09 16:13:21;;;;;;;2.83;1.85;;;24.30;38.80;28.60;94581.00;;;;10352565;28;75641;-66
2021/10/09 16:18:24;;;;;;;3.05;1.77;;;24.30;39.00;28.60;94577.00;;;;10337940;28;45596;-65
2021/10/09 16:23:25;;;;;;;3.35;1.80;;;24.20;38.80;28.60;94579.00;;;;10350128;28;75719;-64
2021/10/09 16:28:26;;;;;;;2.80;2.05;;;24.30;38.70;28.60;94581.00;;;;10349122;28;51504;-64
2021/10/09 16:33:27;;;;;;;3.00;1.92;;;24.20;38.70;28.60;94596.00;;;;10347429;28;75760;-64
2021/10/09 16:38:27;;;;;;;3.08;2.00;;;24.20;38.70;28.50;94603.00;;;;10349221;28;45515;-64
2021/10/09 16:43:28;;;;;;;4.10;2.20;;;24.20;38.70;28.60;94596.00;;;;10348068;28;74391;-63
2021/10/09 16:48:29;;;;;;;4.03;2.80;;;24.20;38.80;28.60;94611.00;;;;10350444;28;46101;-64
2021/10/09 16:53:29;;;;;;;4.97;2.92;;;24.20;38.80;28.50;94596.00;;;;10348446;28;70377;-62
2021/10/09 16:58:32;;;;;;;5.20;3.28;;;24.20;38.70;28.50;94613.00;;;;10344799;28;60470;-61
2021/10/09 17:03:33;;;;;;;4.68;3.08;;;24.20;38.70;28.50;94611.00;;;;10351492;28;46533;-62
2021/10/09 17:08:34;;;;;;;4.53;3.13;;;24.20;38.70;28.50;94604.00;;;;10348030;28;75709;-62
2021/10/09 17:13:35;;;;;;;7.07;3.13;;;24.20;38.70;28.50;94619.00;;;;10332888;28;47439;-62
2021/10/09 17:18:37;;;;;;;5.15;3.35;;;24.30;38.70;28.50;94615.00;;;;10344952;28;45424;-62
2021/10/09 17:23:38;;;;;;;4.82;3.10;;;24.20;38.70;28.50;94607.00;;;;10350181;28;46216;-62
2021/10/09 17:28:40;;;;;;;5.57;3.70;;;24.20;38.60;28.50;94616.00;;;;10348305;28;75387;-62
2021/10/09 17:33:41;;;;;;;4.40;3.13;;;24.20;38.70;28.50;94624.00;;;;10350737;28;45514;-62
2021/10/09 17:38:42;;;;;;;4.50;3.17;;;24.20;38.70;28.50;94615.00;;;;10349305;28;59154;-62
2021/10/09 17:43:43;;;;;;;5.60;3.72;;;24.20;38.70;28.50;94611.00;;;;10349597;28;46151;-62
2021/10/09 17:48:44;;;;;;;5.13;3.40;;;24.20;39.50;28.50;94626.00;;;;10349375;28;46938;-62
2021/10/09 17:53:45;;;;;;;5.57;3.28;;;24.20;38.70;28.50;94627.00;;;;10350763;28;47146;-62
2021/10/09 17:58:45;;;;;;;4.90;2.97;;;24.20;38.80;28.60;94630.00;;;;10349720;28;75150;-61
2021/10/09 18:03:46;;;;;;;4.60;3.05;;;24.30;38.80;28.60;94629.00;;;;10349337;28;74555;-63
2021/10/09 18:08:47;;;;;;;4.93;3.08;;;24.30;38.80;28.60;94628.00;;;;10333559;28;46989;-62
2021/10/09 18:13:48;;;;;;;7.57;3.42;;;24.30;38.80;28.50;94620.00;;;;10355410;28;47107;-63
2021/10/09 18:18:49;;;;;;;4.68;2.95;;;24.30;38.70;28.60;94624.00;;;;10355365;28;73425;-63
2021/10/09 18:23:49;;;;;;;4.32;3.00;;;24.30;38.70;28.60;94624.00;;;;10355711;28;45561;-64
2021/10/09 18:28:50;;;;;;;6.07;3.17;;;24.30;38.70;28.60;94633.00;;;;10345367;28;74746;-62
2021/10/09 18:33:51;;;;;;;5.78;3.20;;;24.30;38.70;28.60;94617.00;;;;10347038;28;45552;-62
2021/10/09 18:38:53;;;;;;;4.75;3.00;;;24.30;38.70;28.60;94634.00;;;;10346253;28;75497;-63
2021/10/09 18:43:53;;;;;;;4.20;2.90;;;24.30;38.70;28.60;94645.00;;;;10354377;28;45295;-62
2021/10/09 18:48:54;;;;;;;4.13;2.92;;;24.30;38.70;28.60;94639.00;;;;10346352;28;47232;-63
2021/10/09 18:53:55;;;;;;;4.50;3.00;;;24.30;38.70;28.60;94636.00;;;;10329766;28;53430;-61
2021/10/09 18:58:56;;;;;;;6.38;3.00;;;24.30;38.70;28.60;94629.00;;;;10344500;28;47251;-63
2021/10/09 19:03:56;;;;;;;5.57;3.10;;;24.30;38.60;28.60;94629.00;;;;10337670;28;46986;-63
2021/10/09 19:08:57;;;;;;;4.40;3.00;;;24.30;38.60;28.60;94635.00;;;;10353658;28;45304;-63
2021/10/09 19:13:58;;;;;;;4.00;2.72;;;24.30;38.60;28.60;94639.00;;;;10352611;28;70672;-62
2021/10/09 19:18:59;;;;;;;4.00;3.00;;;24.30;38.60;28.60;94631.00;;;;10351428;28;75621;-63
2021/10/09 19:24:00;;;;;;;4.68;2.97;;;24.30;38.60;28.60;94633.00;;;;10353904;28;46414;-63
2021/10/09 19:29:01;;;;;;;3.72;2.58;;;24.30;38.60;28.60;94632.00;;;;10336127;28;47076;-63
2021/10/09 19:39:09;;;;;;;3.47;2.50;;;24.30;38.60;28.60;94626.00;;;;10349820;28;45316;-63
2021/10/09 19:44:09;;;;;;;4.07;2.80;;;24.30;38.60;28.60;94622.00;;;;10342824;28;75720;-63
2021/10/09 19:49:11;;;;;;;3.60;2.60;;;24.30;38.60;28.60;94637.00;;;;10348541;28;73324;-62
2021/10/09 19:59:33;;;;;;;5.45;3.03;;;24.30;38.60;28.60;94628.00;;;;10350337;28;45493;-63
2021/10/09 20:04:34;;;;;;;4.53;2.83;;;24.30;38.60;28.60;94632.00;;;;10345924;28;45484;-61
2021/10/09 20:14:40;;;;;;;3.83;2.65;;;24.30;38.50;28.60;94636.00;;;;10345410;28;46052;-63
2021/10/09 20:19:43;;;;;;;4.18;2.58;;;24.30;38.50;28.60;94638.00;;;;10338044;28;50596;-60
2021/10/09 20:24:49;;;;;;;4.47;2.72;;;24.30;38.50;28.60;94634.00;;;;10343771;28;46066;-62
2021/10/09 20:29:49;;;;;;;4.50;2.60;;;24.30;39.20;28.60;94641.00;;;;10349342;28;47863;-63
2021/10/09 20:34:50;;;;;;;5.63;3.10;;;24.30;38.50;28.60;94636.00;;;;10344292;28;75321;-63
2021/10/09 20:39:51;;;;;;;3.33;2.50;;;24.30;38.60;28.50;94641.00;;;;10357337;28;47062;-61
2021/10/09 20:44:52;;;;;;;4.70;2.80;;;24.20;38.50;28.50;94636.00;;;;10366815;28;48258;-62
2021/10/09 20:49:52;;;;;;;3.40;2.40;;;24.30;38.50;28.50;94631.00;;;;10349696;28;67267;-63
2021/10/09 20:54:53;;;;;;;3.88;2.75;;;24.20;38.50;28.50;94640.00;;;;10349393;28;75787;-62
2021/10/09 20:59:54;;;;;;;3.30;2.17;;;24.20;38.60;28.50;94641.00;;;;10350464;28;75413;-63
2021/10/09 21:04:54;;;;;;;3.35;2.35;;;24.20;38.50;28.40;94642.00;;;;10351113;28;45446;-62
2021/10/09 21:09:58;;;;;;;3.92;2.40;;;24.10;38.50;28.40;94638.00;;;;10351229;28;45889;-63
2021/10/09 21:25:37;;;;;;;3.15;2.10;;;24.10;38.60;28.30;94633.00;;;;10366172;23;45298;-65
2021/10/09 21:30:41;;;;;;;4.40;2.47;;;24.10;38.60;28.30;94629.00;;;;10367241;28;50631;-65
2021/10/09 21:35:42;;;;;;;4.00;2.45;;;24.10;38.60;28.30;94631.00;;;;10367218;28;46397;-65
2021/10/09 21:40:42;;;;;;;2.75;2.25;;;24.10;38.60;28.30;94625.00;;;;10349309;28;73449;-65
2021/10/09 21:45:43;;;;;;;3.83;2.67;;;24.00;38.50;28.30;94621.00;;;;10354046;28;73787;-65
2021/10/09 21:50:44;;;;;;;4.35;2.22;;;24.00;38.60;28.20;94617.00;;;;10355929;28;73127;-66
2021/10/09 21:55:47;;;;;;;3.30;2.45;;;24.00;38.60;28.20;94612.00;;;;10358387;28;47527;-67
2021/10/09 22:00:56;;;;;;;3.63;2.45;;;24.00;38.60;28.20;94602.00;;;;10356646;28;47006;-65
2021/10/09 22:16:40;;;;;;;3.38;2.25;;;23.90;38.70;28.10;94597.00;;;;10351109;28;45642;-65
2021/10/09 22:37:04;;;;;;;3.75;2.63;;;23.90;38.70;28.00;94579.00;;;;10363377;28;45328;-65
2021/10/09 22:42:06;;;;;;;3.80;2.28;;;23.90;38.80;28.00;94593.00;;;;10371097;28;73538;-65
2021/10/09 22:47:07;;;;;;;4.47;2.22;;;23.80;38.70;28.00;94583.00;;;;10371577;28;45253;-65
2021/10/09 22:52:08;;;;;;;3.03;1.98;;;23.80;38.70;28.00;94594.00;;;;10370640;28;69477;-65
2021/10/09 22:57:08;;;;;;;3.50;2.33;;;23.80;38.70;28.00;94597.00;;;;10370223;28;45408;-65
2021/10/09 23:02:10;;;;;;;3.20;2.20;;;23.80;38.70;28.00;94592.00;;;;10354293;28;74002;-65
2021/10/09 23:07:11;;;;;;;3.90;2.55;;;23.80;38.80;28.00;94602.00;;;;10371635;28;45308;-65
2021/10/09 23:12:11;;;;;;;2.70;2.00;;;23.80;38.80;27.90;94594.00;;;;10354165;28;66240;-65
2021/10/09 23:17:12;;;;;;;3.08;2.30;;;23.80;38.80;27.90;94597.00;;;;10354486;28;48072;-67
2021/10/09 23:22:14;;;;;;;3.40;2.30;;;23.70;38.80;27.90;94590.00;;;;10355004;28;75753;-68
2021/10/09 23:27:15;;;;;;;3.53;2.20;;;23.70;38.80;27.90;94600.00;;;;10354284;28;47302;-67
2021/10/09 23:32:16;;;;;;;3.42;2.42;;;23.70;38.70;27.90;94588.00;;;;10354704;28;75479;-66
2021/10/09 23:37:17;;;;;;;4.93;2.35;;;23.70;38.80;27.90;94592.00;;;;10353678;28;47534;-65
2021/10/09 23:42:17;;;;;;;3.10;2.28;;;23.70;38.80;27.90;94601.00;;;;10368869;28;75660;-65
2021/10/09 23:47:18;;;;;;;4.18;2.38;;;23.70;38.80;27.80;94598.00;;;;10352378;28;75649;-66
2021/10/09 23:52:19;;;;;;;3.47;2.30;;;23.70;38.90;27.80;94593.00;;;;10352059;28;71000;-65
2021/10/09 23:57:19;;;;;;;3.30;2.10;;;23.70;38.90;27.80;94587.00;;;;10352714;28;56859;-65
